Latest Coastal Weather Observations for Walpole North

IDW60701

Issued at 4:33 pm WST Monday 23 January 2017 (issued every 10 minutes, with the page automatically refreshed every 10 minutes)

About coastal observations | Map of coastal stations | Coastal observations for WA | Marine services | Other Formats
Station Details ID: 009998 Name: NORTH WALPOLE Lat: -34.95 Lon: 116.72 Height: 73.0 m
Data from the previous 72 hours. | See also: Recent months at Walpole North
Date/Time
WST
Temp
°C
Wind Pressure Rain since
9am
mm
Weather Cloud Vis
km
Sea
Height
m
Swell
Dir  Spd
kts
Gust
kts
hPa Trend Height
m
Period
s
Dir
23/04:30pm 19.0 SSW 11 14 1017.6 - 0.0 - - - - - - -
23/04:00pm 19.9 SSW 9 14 1017.4 - 0.0 - - - - - - -
23/03:30pm 20.8 SW 8 15 1017.2 - 0.0 - - - - - - -
23/03:00pm 19.5 SW 9 16 1017.2 - 0.0 - - - - - - -
23/02:30pm 19.8 SW 10 17 1017.2 - 0.0 - - - - - - -
23/02:00pm 20.6 WSW 9 14 1017.1 - 0.0 - - - - - - -
23/01:30pm 19.2 WSW 10 17 1017.1 - 0.0 - - - - - - -
23/01:00pm 19.4 WSW 8 14 1017.1 - 0.0 - - - - - - -
23/12:30pm 20.6 WSW 9 18 1017.2 - 0.0 - - - - - - -
23/12:00pm 19.8 SW 10 17 1017.1 - 0.0 - - - - - - -
23/11:30am 19.7 WSW 9 14 1017.1 - 0.0 - - - - - - -
23/11:00am 18.6 WSW 8 14 1016.9 - 0.0 - - - - - - -
23/10:30am 18.2 SW 9 14 1016.8 - 0.0 - - - - - - -
23/10:00am 18.2 SW 9 15 1016.6 - 0.0 - - - - - - -
23/09:30am 19.0 SSW 11 17 1016.5 - 0.0 - - - - - - -
23/09:00am 18.2 SW 8 12 1016.3 - 0.8 - - - - - - -
23/08:30am 17.4 WSW 11 16 1016.0 - 0.8 - - - - - - -
23/08:00am 17.7 SW 9 14 1015.7 - 0.8 - - - - - - -
23/07:30am 16.8 WSW 11 17 1015.3 - 0.8 - - - - - - -
23/07:00am 15.8 WSW 6 9 1015.0 - 0.8 - - - - - - -
23/06:30am 14.5 WSW 6 10 1014.7 - 0.8 - - - - - - -
23/06:00am 14.1 WSW 7 11 1014.3 - 0.8 - - - - - - -
23/05:30am 14.1 WSW 8 11 1013.9 - 0.8 - - - - - - -
23/05:00am 14.5 WSW 8 15 1013.6 - 0.8 - - - - - - -
23/04:30am 14.6 WSW 7 12 1013.1 - 0.8 - - - - - - -
23/04:00am 14.4 SW 8 14 1012.9 - 0.8 - - - - - - -
23/03:30am 13.6 W 5 8 1012.7 - 0.8 - - - - - - -
23/03:00am 13.4 W 4 6 1012.4 - 0.8 Recent precip. - - - - - -
23/02:30am 13.3 WSW 4 6 1012.3 - 0.8 - - - - - - -
23/02:00am 13.8 WSW 8 11 1012.2 - 0.6 - - - - - - -
23/01:30am 14.2 WNW 4 7 1012.0 - 0.0 - - - - - - -
23/01:00am 14.3 WNW 4 6 1012.0 - 0.0 - - - - - - -
23/12:30am 14.0 W 4 6 1012.1 - 0.0 - - - - - - -
23/12:00am 13.9 WNW 5 7 1012.3 - 0.0 - - - - - - -
 
Date/Time
WST
Temp
°C
Wind Pressure Rain since
9am
mm
Weather Cloud Vis
km
Sea
Height
m
Swell
Dir  Spd
kts
Gust
kts
hPa Trend Height
m
Period
s
Dir
22/11:30pm 13.9 WNW 4 6 1012.4 - 0.0 - - - - - - -
22/11:00pm 13.6 WNW 4 5 1012.4 - 0.0 - - - - - - -
22/10:30pm 13.8 W 3 4 1012.4 - 0.0 - - - - - - -
22/10:00pm 14.6 W 4 6 1012.3 - 0.0 - - - - - - -
22/09:30pm 15.3 WSW 6 10 1012.4 - 0.0 - - - - - - -
22/09:00pm 16.4 WSW 8 13 1012.3 - 0.0 - - - - - - -
22/08:30pm 16.5 W 7 11 1012.0 - 0.0 - - - - - - -
22/08:00pm 16.6 WSW 7 11 1011.8 - 0.0 - - - - - - -
22/07:30pm 16.7 WSW 7 10 1011.7 - 0.0 - - - - - - -
22/07:00pm 17.1 WSW 10 19 1011.5 - 0.0 - - - - - - -
22/06:30pm 17.5 W 10 14 1011.1 - 0.0 - - - - - - -
22/06:00pm 18.1 WSW 9 13 1010.7 - 0.0 - - - - - - -
22/05:30pm 19.0 WSW 9 16 1010.4 - 0.0 - - - - - - -
22/05:00pm 18.7 WSW 11 16 1010.3 - 0.0 - - - - - - -
22/04:30pm 18.7 WSW 10 15 1010.3 - 0.0 - - - - - - -
22/04:00pm 19.5 WSW 10 16 1010.2 - 0.0 - - - - - - -
22/03:30pm 20.1 SW 11 18 1010.4 - 0.0 - - - - - - -
22/03:00pm 20.0 WSW 11 16 1010.4 - 0.0 - - - - - - -
22/02:30pm 20.1 WSW 10 23 1010.6 - 0.0 - - - - - - -
22/02:00pm 19.2 WSW 11 19 1010.7 - 0.0 - - - - - - -
22/01:30pm 19.5 SW 11 17 1010.7 - 0.0 - - - - - - -
22/01:00pm 20.0 WSW 11 17 1010.6 - 0.0 - - - - - - -
22/12:30pm 19.6 WSW 11 17 1010.4 - 0.0 - - - - - - -
22/12:00pm 19.4 WSW 11 19 1010.3 - 0.0 - - - - - - -
22/11:30am 19.2 W 10 22 1010.5 - 0.0 - - - - - - -
22/11:00am 19.2 WSW 10 16 1010.5 - 0.0 - - - - - - -
22/10:30am 19.4 W 10 18 1010.5 - 0.0 - - - - - - -
22/10:00am 18.2 WSW 10 17 1010.4 - 0.0 - - - - - - -
22/09:30am 18.0 WSW 11 17 1010.3 - 0.0 - - - - - - -
22/09:00am 17.9 WSW 12 18 1010.1 - 1.6 - - - - - - -
22/08:30am 18.4 W 10 17 1010.2 - 1.6 - - - - - - -
22/08:00am 18.0 W 6 10 1010.2 - 1.6 - - - - - - -
22/07:30am 17.0 WSW 5 8 1010.2 - 1.6 - - - - - - -
22/07:00am 15.9 W 4 5 1010.1 - 1.6 - - - - - - -
22/06:30am 15.4 WNW 4 6 1010.0 - 1.6 - - - - - - -
22/06:00am 14.8 WNW 4 5 1009.7 - 1.6 - - - - - - -
22/05:30am 15.0 WNW 4 5 1009.5 - 1.6 - - - - - - -
22/05:00am 15.5 WNW 4 6 1009.2 - 1.6 - - - - - - -
22/04:30am 15.6 WNW 5 7 1009.1 - 1.6 - - - - - - -
22/04:00am 15.5 WNW 5 7 1008.9 - 1.4 - - - - - - -
22/03:30am 15.5 SW 5 5 1008.9 - 1.2 - - - - - - -
22/03:00am 15.6 SW 3 4 1008.9 - 0.4 Rain - - - - - -
22/02:30am 15.9 SW 2 5 1008.7 - 0.0 - - - - - - -
22/02:00am 16.0 CALM 0 0 1008.5 - 0.0 - - - - - - -
22/01:30am 15.8 SSW 3 4 1008.7 - 0.0 - - - - - - -
22/01:00am 16.0 CALM 0 0 1009.0 - 0.0 - - - - - - -
22/12:30am 16.0 SSW 2 5 1009.1 - 0.0 - - - - - - -
22/12:00am 15.9 CALM 0 0 1009.5 - 0.0 - - - - - - -
 
Date/Time
WST
Temp
°C
Wind Pressure Rain since
9am
mm
Weather Cloud Vis
km
Sea
Height
m
Swell
Dir  Spd
kts
Gust
kts
hPa Trend Height
m
Period
s
Dir
21/11:30pm 16.0 CALM 0 0 1009.7 - 0.0 - - - - - - -
21/11:00pm 15.8 CALM 0 0 1009.9 - 0.0 - - - - - - -
21/10:30pm 16.0 CALM 0 0 1009.8 - 0.0 - - - - - - -
21/10:00pm 16.6 CALM 0 0 1009.9 - 0.0 - - - - - - -
21/09:30pm 16.9 CALM 0 0 1010.1 - 0.0 - - - - - - -
21/09:00pm 17.1 CALM 0 0 1010.1 - 0.0 - - - - - - -
21/08:30pm 17.2 SSW 2 4 1009.9 - 0.0 - - - - - - -
21/08:00pm 17.3 SSW 4 5 1009.6 - 0.0 - - - - - - -
21/07:30pm 17.5 SSW 5 7 1009.4 - 0.0 - - - - - - -
21/07:00pm 17.9 SSW 8 11 1009.3 - 0.0 - - - - - - -
21/06:30pm 20.0 SW 6 9 1009.1 - 0.0 - - - - - - -
21/06:00pm 20.2 SSW 7 9 1008.8 - 0.0 - - - - - - -
21/05:30pm 20.6 S 5 8 1008.3 - 0.0 - - - - - - -
21/05:00pm 20.7 SSE 7 13 1008.2 - 0.0 - - - - - - -
21/04:30pm 21.5 SSE 7 12 1008.1 - 0.0 - - - - - - -
21/04:00pm 21.6 SSE 8 12 1008.1 - 0.0 - - - - - - -
21/03:30pm 21.6 SSE 7 13 1008.2 - 0.0 - - - - - - -
21/03:00pm 22.7 SSE 8 14 1008.3 - 0.0 - - - - - - -
21/02:30pm 22.2 S 8 13 1008.6 - 0.0 - - - - - - -
21/02:00pm 21.6 SSE 8 14 1008.7 - 0.0 - - - - - - -
21/01:30pm 23.0 S 8 15 1008.8 - 0.0 - - - - - - -
21/01:00pm 22.2 SSE 8 11 1008.9 - 0.0 - - - - - - -
21/12:30pm 23.4 S 8 13 1009.1 - 0.0 - - - - - - -
21/12:00pm 22.2 SSE 8 13 1009.2 - 0.0 - - - - - - -
21/11:30am 22.9 SSE 8 11 1009.5 - 0.0 - - - - - - -
21/11:00am 22.8 SSE 7 11 1009.7 - 0.0 - - - - - - -
21/10:30am 21.7 SSE 6 11 1009.9 - 0.0 - - - - - - -
21/10:00am 22.0 SSE 7 10 1010.1 - 0.0 - - - - - - -
21/09:30am 21.1 S 5 9 1010.2 - 0.0 - - - - - - -
21/09:00am 20.5 WSW 5 9 1010.3 - 0.0 - - - - - - -
21/08:30am 18.8 SW 3 5 1010.6 - 0.0 - - - - - - -
21/08:00am 17.5 ESE 2 4 1010.8 - 0.0 - - - - - - -
21/07:30am 15.6 CALM 0 0 1010.8 - 0.0 - - - - - - -
21/07:00am 14.3 CALM 0 0 1010.9 - 0.0 - - - - - - -
21/06:30am 13.6 CALM 0 0 1010.8 - 0.0 - - - - - - -
21/06:00am 12.6 CALM 0 0 1010.6 - 0.0 - - - - - - -
21/05:30am 11.7 CALM 0 0 1010.5 - 0.0 - - - - - - -
21/05:00am 12.2 CALM 0 0 1010.4 - 0.0 - - - - - - -
21/04:30am 12.4 CALM 0 0 1010.1 - 0.0 - - - - - - -
21/04:00am 11.9 CALM 0 0 1010.1 - 0.0 - - - - - - -
21/03:30am 12.4 CALM 0 0 1010.0 - 0.0 - - - - - - -
21/03:00am 12.6 CALM 0 0 1009.9 - 0.0 - - - - - - -
21/02:30am 12.4 CALM 0 0 1010.0 - 0.0 - - - - - - -
21/02:00am 12.4 CALM 0 0 1010.1 - 0.0 - - - - - - -
21/01:30am 12.5 CALM 0 0 1010.3 - 0.0 - - - - - - -
21/01:00am 12.7 CALM 0 0 1010.4 - 0.0 - - - - - - -
21/12:30am 12.6 ESE 1 4 1010.8 - 0.0 - - - - - - -
21/12:00am 13.0 ESE 2 4 1010.8 - 0.0 - - - - - - -
 
Date/Time
WST
Temp
°C
Wind Pressure Rain since
9am
mm
Weather Cloud Vis
km
Sea
Height
m
Swell
Dir  Spd
kts
Gust
kts
hPa Trend Height
m
Period
s
Dir
20/11:30pm 13.5 CALM 0 0 1010.8 - 0.0 - - - - - - -
20/11:00pm 14.5 NE 4 6 1011.0 - 0.0 - - - - - - -
20/10:30pm 14.6 NE 4 5 1011.2 - 0.0 - - - - - - -
20/10:00pm 14.9 NE 4 6 1011.3 - 0.0 - - - - - - -
20/09:30pm 15.3 ENE 4 5 1011.6 - 0.0 - - - - - - -
20/09:00pm 16.2 ENE 3 4 1011.7 - 0.0 - - - - - - -
20/08:30pm 16.6 S 3 4 1011.6 - 0.0 - - - - - - -
20/08:00pm 17.0 S 3 4 1011.5 - 0.0 - - - - - - -
20/07:30pm 17.1 S 2 5 1011.5 - 0.0 - - - - - - -
20/07:00pm 18.2 SSE 4 6 1011.4 - 0.0 - - - - - - -
20/06:30pm 18.9 SSE 5 9 1011.2 - 0.0 - - - - - - -
20/06:00pm 19.5 SSE 5 9 1011.1 - 0.0 - - - - - - -
20/05:30pm 20.2 S 6 11 1011.1 - 0.0 - - - - - - -
20/05:00pm 21.4 S 7 11 1011.1 - 0.0 - - - - - - -

Other Formats:

Comma delimited format used in spreadsheet applications
http://www.bom.gov.au/fwo/IDW60701/IDW60701.95647.axf

JavaScript Object Notation format (JSON) in row-major order
http://www.bom.gov.au/fwo/IDW60701/IDW60701.95647.json